Nearby METAR Reports

 

KADS - Dallas/Addison, Texas, USA
Distance from station: SSW 10mi, 16km
Updated: Mon, 18-Dec-2017 2:35am CST
Mist, Overcast
Mist, Overcast
 Wind from calm
Wind: Calm
Temperature: 48°F , 9°C
Dew Point: 46°F , 8°C
Humidity: 94%
Barometer: 30.16 inHg , 1021.3 hPa
Summary: Mist
Clouds: Overcast
Visibility: 5 miles , 8 km
Cloud details: Overcast 600 ft
2017/12/18 08:35 KADS 180835Z AUTO 00000KT 5SM BR OVC006 09/08 A3016 RMK AO2 T00880080
KTKI - Mckinney, Texas, USA
Distance from station: ENE 11mi, 18km
Updated: Mon, 18-Dec-2017 1:53am CST
Overcast
Overcast
 Wind from E
Wind: E 3 mph , 6 km/h
Temperature: 48°F , 9°C
Dew Point: 46°F , 8°C
Humidity: 94%
Barometer: 30.15 inHg , 1021 hPa
Clouds: Overcast
Visibility: 7 miles , 11 km
Cloud details: Overcast 700 ft
2017/12/18 07:53 KTKI 180753Z AUTO 09003KT 7SM OVC007 09/08 A3015 RMK AO2 SLP218 T00890083
 
KDAL - Dallas/Love Fld, Texas, USA
Distance from station: SSW 18mi, 30km
Updated: Mon, 18-Dec-2017 1:53am CST
Mist, Overcast
Mist, Overcast
 Wind from ESE
Wind: ESE 3 mph , 6 km/h
Temperature: 48°F , 9°C
Dew Point: 46°F , 8°C
Humidity: 94%
Barometer: 30.14 inHg , 1020.7 hPa
Summary: Mist
Clouds: Overcast
Visibility: 5 miles , 8 km
Cloud details: Overcast 600 ft
2017/12/18 07:53 KDAL 180753Z 12003KT 5SM BR OVC006 09/08 A3014 RMK AO2 SLP206 T00940083
KDFW - Dallas/Ft Worth, Texas, USA
Distance from station: SW 21mi, 34km
Updated: Mon, 18-Dec-2017 2:30am CST
Mist, Overcast
Mist, Overcast
 Wind from S
Wind: S 5 mph , 7 km/h
Temperature: 50°F , 10°C
Wind Chill: 48°F , 9°C
Dew Point: 48°F , 9°C
Humidity: 94%
Barometer: 30.13 inHg , 1020.3 hPa
Summary: Mist
Clouds: Overcast
Visibility: 2 miles , 3 km
Cloud details: Overcast 300 ft
2017/12/18 08:30 KDFW 180830Z 17004KT 2SM BR OVC003 10/09 A3013 RMK AO2 DZE29 P0000 T01000089 $
 
KF46 - Rockwall, Texas, USA
Distance from station: ESE 22mi, 35km
Updated: Mon, 18-Dec-2017 2:35am CST
Mist, Overcast
Mist, Overcast
 Wind from calm
Wind: Calm
Temperature: 46°F , 8°C
Dew Point: 46°F , 8°C
Humidity: 100%
Barometer: 30.15 inHg , 1021 hPa
Summary: Mist
Clouds: Overcast
Visibility: 4 miles , 6 km
Cloud details: Overcast 300 ft
2017/12/18 08:35 KF46 180835Z AUTO 00000KT 4SM BR OVC003 08/08 A3015 RMK AO2 T00840084
KDTO - Denton, Texas, USA
Distance from station: WNW 27mi, 43km
Updated: Mon, 18-Dec-2017 2:13am CST
Mist, Overcast
Mist, Overcast
 Wind from calm
Wind: Calm
Temperature: 46°F , 8°C
Dew Point: 46°F , 8°C
Humidity: 100%
Barometer: 30.15 inHg , 1021 hPa
Summary: Mist
Clouds: Overcast
Visibility: 3/4 mile , 5 km
Cloud details: Overcast 200 ft
2017/12/18 08:13 KDTO 180813Z AUTO 00000KT 3/4SM BR VV002 08/08 A3015 RMK AO2 T00830083
 
KHQZ - Mesquite, Texas, USA
Distance from station: SSE 28mi, 44km
Updated: Mon, 18-Dec-2017 2:35am CST
Overcast
Overcast
 Wind from calm
Wind: Calm
Temperature: 48°F , 9°C
Dew Point: 46°F , 8°C
Humidity: 94%
Barometer: 30.15 inHg , 1021 hPa
Clouds: Overcast
Visibility: 3 miles , 5 km
Cloud details: Overcast 300 ft
2017/12/18 08:35 KHQZ 180835Z AUTO 00000KT 3SM OVC003 09/08 A3015 RMK AO1 T00850082
KRBD - Dallas/Redbird, Texas, USA
Distance from station: SSW 30mi, 48km
Updated: Mon, 18-Dec-2017 2:28am CST
Fog, Overcast
Fog, Overcast
 Wind from calm
Wind: Calm
Temperature: 46°F , 8°C
Dew Point: 46°F , 8°C
Humidity: 100%
Barometer: 30.13 inHg , 1020.3 hPa
Summary: Fog
Clouds: Overcast
Visibility: 1/2 mile , 2 km
Cloud details: Overcast 200 ft
2017/12/18 08:28 KRBD 180828Z AUTO 00000KT 1/2SM FG VV002 08/08 A3013 RMK AO2 T00780078 $
 
KGPM - Grand Prairie, Texas, USA
Distance from station: SSW 33mi, 53km
Updated: Mon, 18-Dec-2017 2:35am CST
Overcast
Overcast
 Wind from ESE
Wind: ESE 3 mph , 6 km/h
Temperature: 48°F , 9°C
Dew Point: 48°F , 9°C
Humidity: 100%
Barometer: 30.16 inHg , 1021.3 hPa
Clouds: Overcast
Visibility: 4 miles , 6 km
Cloud details: Overcast 400 ft
2017/12/18 08:35 KGPM 180835Z AUTO 11003KT 4SM OVC004 09/09 A3016 RMK AO2 T00870087
KAFW - Ft Worth/Allianc, Texas, USA
Distance from station: WSW 34mi, 55km
Updated: Mon, 18-Dec-2017 2:20am CST
Mist, Overcast
Mist, Overcast
 Wind from E
Wind: E 5 mph , 7 km/h
Temperature: 46°F , 8°C
Wind Chill: 44°F , 7°C
Dew Point: 46°F , 8°C
Humidity: 100%
Barometer: 30.14 inHg , 1020.7 hPa
Summary: Mist
Clouds: Overcast
Visibility: 1 1/2 miles , 2 km
Cloud details: Overcast 200 ft
2017/12/18 08:20 KAFW 180820Z 10004KT 1 1/2SM BR VV002 08/08 A3014 RMK AO2 T00830083 $
 
KLNC - Lancaster, Texas, USA
Distance from station: S 36mi, 58km
Updated: Mon, 18-Dec-2017 2:35am CST
Mist, Overcast
Mist, Overcast
 Wind from calm
Wind: Calm
Temperature: 48°F , 9°C
Dew Point: 46°F , 8°C
Humidity: 94%
Barometer: 30.15 inHg , 1021 hPa
Summary: Mist
Clouds: Overcast
Visibility: 2 miles , 3 km
Cloud details: Overcast 100 ft
2017/12/18 08:35 KLNC 180835Z AUTO 00000KT 2SM BR OVC001 09/08 A3015 RMK AO2 T00850080
KGKY - Arlington, Texas, USA
Distance from station: SSW 36mi, 59km
Updated: Mon, 18-Dec-2017 2:19am CST
Mist, Overcast
Mist, Overcast
 Wind from SE
Wind: SE 6 mph , 9 km/h
Temperature: 46°F , 8°C
Wind Chill: 43°F , 6°C
Dew Point: 46°F , 8°C
Humidity: 100%
Barometer: 30.15 inHg , 1021 hPa
Summary: Mist
Clouds: Overcast
Visibility: 4 miles , 6 km
Cloud details: Overcast 200 ft
2017/12/18 08:19 KGKY 180819Z AUTO 14005KT 4SM BR OVC002 08/08 A3015 RMK AO2 T00830083 $
 
KTRL - Terrell, Texas, USA
Distance from station: SE 39mi, 63km
Updated: Mon, 18-Dec-2017 2:30am CST
Mist, Overcast
Mist, Overcast
 Wind from calm
Wind: Calm
Temperature: 48°F , 9°C
Dew Point: 46°F , 8°C
Humidity: 94%
Barometer: 30.15 inHg , 1021 hPa
Summary: Mist
Clouds: Overcast
Visibility: 2 1/2 miles , 2 km
Cloud details: Overcast 200 ft
2017/12/18 08:30 KTRL 180830Z AUTO 00000KT 2 1/2SM BR OVC002 09/08 A3015 RMK AO2 T00890083
KGVT - Greenville/Major, Texas, USA
Distance from station: E 40mi, 64km
Updated: Mon, 18-Dec-2017 2:30am CST
Mist, Overcast
Mist, Overcast
 Wind from calm
Wind: Calm
Temperature: 50°F , 10°C
Dew Point: 50°F , 10°C
Humidity: 100%
Barometer: 30.15 inHg , 1021 hPa
Summary: Mist
Clouds: Overcast
Visibility: 1 1/2 miles , 2 km
Cloud details: Overcast 200 ft
2017/12/18 08:30 KGVT 180830Z AUTO 00000KT 1 1/2SM BR OVC002 10/10 A3015 RMK AO2
 
KFTW - Fort Worth, Texas, USA
Distance from station: WSW 40mi, 65km
Updated: Mon, 18-Dec-2017 2:22am CST
Mist, Overcast
Mist, Overcast
 Wind from E
Wind: E 3 mph , 6 km/h
Temperature: 48°F , 9°C
Dew Point: 48°F , 9°C
Humidity: 100%
Barometer: 30.14 inHg , 1020.7 hPa
Summary: Mist
Clouds: Overcast
Visibility: 3/4 mile , 5 km
Cloud details: Overcast 100 ft
2017/12/18 08:22 KFTW 180822Z 08003KT 3/4SM R16/5000VP6000FT BR OVC001 09/09 A3014 RMK AO2 T00940089 $
KGYI - Sherman/Denison, Texas, USA
Distance from station: N 43mi, 69km
Updated: Mon, 18-Dec-2017 2:35am CST
Mist, Overcast
Mist, Overcast
 Wind from calm
Wind: Calm
Temperature: 46°F , 8°C
Dew Point: 46°F , 8°C
Humidity: 100%
Barometer: 30.17 inHg , 1021.7 hPa
Summary: Mist
Clouds: Overcast
Visibility: 3 miles , 5 km
Cloud details: Overcast 200 ft
2017/12/18 08:35 KGYI 180835Z AUTO 00000KT 3SM BR OVC002 08/08 A3017 RMK AO2 T00780075
 
KNFW - Fort Worth Nas, Texas, USA
Distance from station: WSW 45mi, 73km
Updated: Mon, 18-Dec-2017 2:18am CST
Mist, Overcast
Mist, Overcast
 Wind from E
Wind: E 5 mph , 7 km/h
Temperature: 48°F , 9°C
Wind Chill: 46°F , 8°C
Dew Point: 46°F , 8°C
Humidity: 94%
Barometer: 30.15 inHg , 1021 hPa
Summary: Mist
Clouds: Overcast
Visibility: 2 1/2 miles , 2 km
Cloud details: Overcast 400 ft
2017/12/18 08:18 KNFW 180818Z AUTO 09004KT 2 1/2SM BR OVC004 09/08 A3015 RMK AO2 T00940078 $
KGLE - Gainesville, Texas, USA
Distance from station: NW 46mi, 74km
Updated: Mon, 18-Dec-2017 2:35am CST
Mist, Overcast
Mist, Overcast
 Wind from calm
Wind: Calm
Temperature: 46°F , 8°C
Dew Point: 45°F , 7°C
Humidity: 93%
Barometer: 30.16 inHg , 1021.3 hPa
Summary: Mist
Clouds: Overcast
Visibility: 1 1/2 miles , 2 km
Cloud details: Overcast 300 ft
2017/12/18 08:35 KGLE 180835Z AUTO 00000KT 1 1/2SM BR OVC003 08/07 A3016 RMK AO2 T00760070
 
KJWY - Midlothian/Wax, Texas, USA
Distance from station: SSW 46mi, 74km
Updated: Mon, 18-Dec-2017 2:35am CST
Fog, Overcast
Fog, Overcast
 Wind from calm
Wind: Calm
Temperature: 46°F , 8°C
Dew Point: 46°F , 8°C
Humidity: 100%
Barometer: 30.15 inHg , 1021 hPa
Summary: Fog
Clouds: Overcast
Visibility: 1/2 mile , 2 km
Cloud details: Overcast 200 ft
2017/12/18 08:35 KJWY 180835Z AUTO 00000KT 1/2SM FG OVC002 08/08 A3015 RMK AO2 T00800080
KFWS - Fort Worth/88d, Texas, USA
Distance from station: SW 49mi, 79km
Updated: Mon, 18-Dec-2017 2:35am CST
Mist, Overcast
Mist, Overcast
 Wind from calm
Wind: Calm
Temperature: 46°F , 8°C
Dew Point: 46°F , 8°C
Humidity: 100%
Barometer: 30.15 inHg , 1021 hPa
Summary: Mist
Clouds: Overcast
Visibility: 1 mile , 2 km
Cloud details: Overcast 100 ft
2017/12/18 08:35 KFWS 180835Z AUTO 00000KT 1SM BR OVC001 08/08 A3015 RMK AO2 T00820077